To NAV CANADA Home Page Login to a new session Search on AWWS site Disclaimer Vers la page française équivalente Tips FAQ What's new on the site To the Forecasts and Observations / NOTAM section To "File a Flight Plan" website Publications and other links Update of the User's profile FIC Telephone Numbers My Weather Data Folder Route Weather Data Regional Weather Data Local Weather Data To the Forecasts and Observations / NOTAM section
Request Generated 04/24/2019 at 16:14:38 UTC . Weather information available at that time is displayed.

METAR/TAF

LOURDES-DE-BLANC-SABLON/QC    

METAR CYBX 241600Z 08020KT 15SM SCT015 OVC097 M02/M05 A3010 RMK SC4AC4 SLP196=
METAR CYBX 241500Z 09020G27KT 15SM FEW016 SCT050 OVC095 M02/M05 A3009 RMK SC2SC2AC4 SLP195=
METAR CYBX 241400Z 08023KT 15SM SCT050 OVC095 M01/M05 A3010 RMK SC4AC4 SLP196=

TAF CYBX 241338Z 2414/2502 09020G30KT P6SM -SN SCT010 OVC090 TEMPO
2414/2417 3SM -SN OVC010
FM241700 08018G28KT P6SM OVC110 TEMPO 2417/2419 P6SM -SN
FM241900 08018G28KT P6SM BKN160
BECMG 2423/2501 06012KT
RMK NXT FCST BY 242000Z=
Your time UTC time
Weather data provided by Environment Canada and NAV CANADA